sensor_id;sensor_type;location;lat;lon;timestamp;P1;durP1;ratioP1;P2;durP2;ratioP2
14377;SDS011;7272;53.668;9.578;2023-12-14T00:01:57;3.37;;;2.97;;
14377;SDS011;7272;53.668;9.578;2023-12-14T00:04:59;4.87;;;3.43;;
14377;SDS011;7272;53.668;9.578;2023-12-14T00:08:00;3.53;;;3.23;;
14377;SDS011;7272;53.668;9.578;2023-12-14T00:11:02;3.77;;;3.37;;
14377;SDS011;7272;53.668;9.578;2023-12-14T00:14:04;3.93;;;3.23;;
14377;SDS011;7272;53.668;9.578;2023-12-14T00:17:06;3.23;;;2.63;;
14377;SDS011;7272;53.668;9.578;2023-12-14T00:20:08;5.17;;;3.30;;
14377;SDS011;7272;53.668;9.578;2023-12-14T00:23:11;5.77;;;3.37;;
14377;SDS011;7272;53.668;9.578;2023-12-14T00:26:12;3.20;;;2.90;;
14377;SDS011;7272;53.668;9.578;2023-12-14T00:29:13;5.20;;;3.50;;
14377;SDS011;7272;53.668;9.578;2023-12-14T00:32:14;4.53;;;3.60;;
14377;SDS011;7272;53.668;9.578;2023-12-14T00:35:16;6.67;;;3.70;;
14377;SDS011;7272;53.668;9.578;2023-12-14T00:38:17;4.70;;;3.30;;
14377;SDS011;7272;53.668;9.578;2023-12-14T00:41:18;3.23;;;2.90;;
14377;SDS011;7272;53.668;9.578;2023-12-14T00:44:19;4.77;;;2.60;;
14377;SDS011;7272;53.668;9.578;2023-12-14T00:47:20;5.23;;;2.80;;
14377;SDS011;7272;53.668;9.578;2023-12-14T00:50:22;3.33;;;2.40;;
14377;SDS011;7272;53.668;9.578;2023-12-14T00:53:24;3.13;;;2.70;;
14377;SDS011;7272;53.668;9.578;2023-12-14T00:56:25;3.97;;;2.67;;
14377;SDS011;7272;53.668;9.578;2023-12-14T00:59:26;2.87;;;2.57;;
14377;SDS011;7272;53.668;9.578;2023-12-14T01:02:29;2.80;;;2.13;;
14377;SDS011;7272;53.668;9.578;2023-12-14T01:05:31;3.17;;;2.50;;
14377;SDS011;7272;53.668;9.578;2023-12-14T01:08:32;5.00;;;2.60;;
14377;SDS011;7272;53.668;9.578;2023-12-14T01:11:33;2.83;;;2.47;;
14377;SDS011;7272;53.668;9.578;2023-12-14T01:14:34;3.57;;;2.67;;
14377;SDS011;7272;53.668;9.578;2023-12-14T01:17:35;2.43;;;2.10;;
14377;SDS011;7272;53.668;9.578;2023-12-14T01:20:38;2.83;;;2.63;;
14377;SDS011;7272;53.668;9.578;2023-12-14T01:23:40;6.10;;;2.70;;
14377;SDS011;7272;53.668;9.578;2023-12-14T01:26:41;2.77;;;2.50;;
14377;SDS011;7272;53.668;9.578;2023-12-14T01:29:42;3.57;;;2.90;;
14377;SDS011;7272;53.668;9.578;2023-12-14T01:32:43;2.73;;;2.47;;
14377;SDS011;7272;53.668;9.578;2023-12-14T01:35:45;4.30;;;2.47;;
14377;SDS011;7272;53.668;9.578;2023-12-14T01:38:46;3.93;;;2.33;;
14377;SDS011;7272;53.668;9.578;2023-12-14T01:41:47;3.60;;;2.57;;
14377;SDS011;7272;53.668;9.578;2023-12-14T01:44:49;3.23;;;2.63;;
14377;SDS011;7272;53.668;9.578;2023-12-14T01:47:50;2.83;;;2.30;;
14377;SDS011;7272;53.668;9.578;2023-12-14T01:50:52;4.30;;;2.47;;
14377;SDS011;7272;53.668;9.578;2023-12-14T01:53:53;2.60;;;2.40;;
14377;SDS011;7272;53.668;9.578;2023-12-14T01:56:55;3.00;;;2.17;;
14377;SDS011;7272;53.668;9.578;2023-12-14T01:59:56;3.37;;;2.30;;
14377;SDS011;7272;53.668;9.578;2023-12-14T02:02:57;4.43;;;2.57;;
14377;SDS011;7272;53.668;9.578;2023-12-14T02:05:59;3.83;;;2.50;;
14377;SDS011;7272;53.668;9.578;2023-12-14T02:09:01;2.37;;;2.17;;
14377;SDS011;7272;53.668;9.578;2023-12-14T02:12:03;2.40;;;2.20;;
14377;SDS011;7272;53.668;9.578;2023-12-14T02:15:05;2.97;;;2.50;;
14377;SDS011;7272;53.668;9.578;2023-12-14T02:18:07;4.20;;;2.40;;
14377;SDS011;7272;53.668;9.578;2023-12-14T02:21:09;4.90;;;2.90;;
14377;SDS011;7272;53.668;9.578;2023-12-14T02:24:11;2.40;;;2.20;;
14377;SDS011;7272;53.668;9.578;2023-12-14T02:27:12;2.77;;;2.50;;
14377;SDS011;7272;53.668;9.578;2023-12-14T02:30:13;2.87;;;2.33;;
14377;SDS011;7272;53.668;9.578;2023-12-14T02:33:15;2.43;;;2.23;;
14377;SDS011;7272;53.668;9.578;2023-12-14T02:36:16;2.93;;;2.27;;
14377;SDS011;7272;53.668;9.578;2023-12-14T02:39:18;3.07;;;2.10;;
14377;SDS011;7272;53.668;9.578;2023-12-14T02:42:19;4.00;;;2.70;;
14377;SDS011;7272;53.668;9.578;2023-12-14T02:45:20;3.23;;;2.20;;
14377;SDS011;7272;53.668;9.578;2023-12-14T02:48:22;4.40;;;3.03;;
14377;SDS011;7272;53.668;9.578;2023-12-14T02:51:23;3.17;;;2.17;;
14377;SDS011;7272;53.668;9.578;2023-12-14T02:54:25;2.90;;;2.37;;
14377;SDS011;7272;53.668;9.578;2023-12-14T02:57:26;2.73;;;2.40;;
14377;SDS011;7272;53.668;9.578;2023-12-14T03:00:27;2.50;;;2.30;;
14377;SDS011;7272;53.668;9.578;2023-12-14T03:03:28;4.93;;;2.80;;
14377;SDS011;7272;53.668;9.578;2023-12-14T03:06:29;4.03;;;2.90;;
14377;SDS011;7272;53.668;9.578;2023-12-14T03:09:31;3.20;;;2.60;;
14377;SDS011;7272;53.668;9.578;2023-12-14T03:12:32;2.93;;;2.60;;
14377;SDS011;7272;53.668;9.578;2023-12-14T03:15:33;3.47;;;2.60;;
14377;SDS011;7272;53.668;9.578;2023-12-14T03:18:35;3.67;;;2.70;;
14377;SDS011;7272;53.668;9.578;2023-12-14T03:21:36;3.57;;;2.43;;
14377;SDS011;7272;53.668;9.578;2023-12-14T03:24:38;3.77;;;2.63;;
14377;SDS011;7272;53.668;9.578;2023-12-14T03:27:39;3.87;;;2.80;;
14377;SDS011;7272;53.668;9.578;2023-12-14T03:30:40;3.50;;;2.63;;
14377;SDS011;7272;53.668;9.578;2023-12-14T03:33:42;2.57;;;2.10;;
14377;SDS011;7272;53.668;9.578;2023-12-14T03:36:43;4.50;;;2.87;;
14377;SDS011;7272;53.668;9.578;2023-12-14T03:39:45;2.70;;;2.50;;
14377;SDS011;7272;53.668;9.578;2023-12-14T03:42:46;2.93;;;2.33;;
14377;SDS011;7272;53.668;9.578;2023-12-14T03:45:47;5.00;;;2.40;;
14377;SDS011;7272;53.668;9.578;2023-12-14T03:48:48;4.00;;;2.50;;
14377;SDS011;7272;53.668;9.578;2023-12-14T03:51:49;3.73;;;2.70;;
14377;SDS011;7272;53.668;9.578;2023-12-14T03:54:51;4.13;;;2.50;;
14377;SDS011;7272;53.668;9.578;2023-12-14T03:57:52;7.93;;;2.90;;
14377;SDS011;7272;53.668;9.578;2023-12-14T04:00:54;3.57;;;2.93;;
14377;SDS011;7272;53.668;9.578;2023-12-14T04:03:55;2.67;;;2.37;;
14377;SDS011;7272;53.668;9.578;2023-12-14T04:06:56;4.33;;;2.93;;
14377;SDS011;7272;53.668;9.578;2023-12-14T04:09:58;3.73;;;2.97;;
14377;SDS011;7272;53.668;9.578;2023-12-14T04:12:59;3.10;;;2.80;;
14377;SDS011;7272;53.668;9.578;2023-12-14T04:16:00;4.93;;;3.67;;
14377;SDS011;7272;53.668;9.578;2023-12-14T04:19:01;5.40;;;3.00;;
14377;SDS011;7272;53.668;9.578;2023-12-14T04:22:03;3.00;;;2.70;;
14377;SDS011;7272;53.668;9.578;2023-12-14T04:25:06;7.10;;;3.40;;
14377;SDS011;7272;53.668;9.578;2023-12-14T04:28:07;4.67;;;2.47;;
14377;SDS011;7272;53.668;9.578;2023-12-14T04:31:09;4.70;;;3.00;;
14377;SDS011;7272;53.668;9.578;2023-12-14T04:34:11;5.17;;;3.57;;
14377;SDS011;7272;53.668;9.578;2023-12-14T04:37:15;5.53;;;4.07;;
14377;SDS011;7272;53.668;9.578;2023-12-14T04:40:17;6.90;;;3.60;;
14377;SDS011;7272;53.668;9.578;2023-12-14T04:43:19;6.67;;;3.80;;
14377;SDS011;7272;53.668;9.578;2023-12-14T04:46:20;4.33;;;3.60;;
14377;SDS011;7272;53.668;9.578;2023-12-14T04:49:21;5.30;;;3.50;;
14377;SDS011;7272;53.668;9.578;2023-12-14T04:52:22;5.03;;;4.13;;
14377;SDS011;7272;53.668;9.578;2023-12-14T04:55:24;6.17;;;3.60;;
14377;SDS011;7272;53.668;9.578;2023-12-14T04:58:26;4.93;;;3.97;;
14377;SDS011;7272;53.668;9.578;2023-12-14T05:01:27;4.87;;;3.53;;
14377;SDS011;7272;53.668;9.578;2023-12-14T05:04:28;4.30;;;3.90;;
14377;SDS011;7272;53.668;9.578;2023-12-14T05:07:29;4.80;;;3.87;;
14377;SDS011;7272;53.668;9.578;2023-12-14T05:10:31;5.33;;;3.63;;
14377;SDS011;7272;53.668;9.578;2023-12-14T05:13:32;7.63;;;4.77;;
14377;SDS011;7272;53.668;9.578;2023-12-14T05:16:33;5.97;;;4.23;;
14377;SDS011;7272;53.668;9.578;2023-12-14T05:19:35;4.10;;;3.50;;
14377;SDS011;7272;53.668;9.578;2023-12-14T05:22:36;4.97;;;4.40;;
14377;SDS011;7272;53.668;9.578;2023-12-14T05:25:38;5.50;;;3.90;;
14377;SDS011;7272;53.668;9.578;2023-12-14T05:28:39;6.43;;;4.00;;
14377;SDS011;7272;53.668;9.578;2023-12-14T05:31:40;8.33;;;4.13;;
14377;SDS011;7272;53.668;9.578;2023-12-14T05:34:41;4.53;;;4.10;;
14377;SDS011;7272;53.668;9.578;2023-12-14T05:37:42;5.43;;;4.30;;
14377;SDS011;7272;53.668;9.578;2023-12-14T05:40:44;4.70;;;4.27;;
14377;SDS011;7272;53.668;9.578;2023-12-14T05:43:46;7.27;;;4.87;;
14377;SDS011;7272;53.668;9.578;2023-12-14T05:46:47;5.97;;;4.63;;
14377;SDS011;7272;53.668;9.578;2023-12-14T05:49:48;10.67;;;5.43;;
14377;SDS011;7272;53.668;9.578;2023-12-14T05:52:50;5.33;;;4.33;;
14377;SDS011;7272;53.668;9.578;2023-12-14T05:55:51;7.30;;;4.70;;
14377;SDS011;7272;53.668;9.578;2023-12-14T05:58:53;7.90;;;4.77;;
14377;SDS011;7272;53.668;9.578;2023-12-14T06:01:56;7.57;;;4.80;;
14377;SDS011;7272;53.668;9.578;2023-12-14T06:04:58;5.23;;;4.70;;
14377;SDS011;7272;53.668;9.578;2023-12-14T06:07:59;9.70;;;4.63;;
14377;SDS011;7272;53.668;9.578;2023-12-14T06:11:01;4.67;;;3.87;;
14377;SDS011;7272;53.668;9.578;2023-12-14T06:14:02;5.13;;;4.27;;
14377;SDS011;7272;53.668;9.578;2023-12-14T06:17:03;6.27;;;4.57;;
14377;SDS011;7272;53.668;9.578;2023-12-14T06:20:05;5.77;;;4.23;;
14377;SDS011;7272;53.668;9.578;2023-12-14T06:23:08;5.70;;;4.47;;
14377;SDS011;7272;53.668;9.578;2023-12-14T06:26:11;6.20;;;4.10;;
14377;SDS011;7272;53.668;9.578;2023-12-14T06:29:12;5.50;;;4.47;;
14377;SDS011;7272;53.668;9.578;2023-12-14T06:32:13;6.03;;;4.50;;
14377;SDS011;7272;53.668;9.578;2023-12-14T06:35:14;7.83;;;4.50;;
14377;SDS011;7272;53.668;9.578;2023-12-14T06:38:16;5.93;;;4.90;;
14377;SDS011;7272;53.668;9.578;2023-12-14T06:41:21;5.00;;;4.50;;
14377;SDS011;7272;53.668;9.578;2023-12-14T06:44:23;6.37;;;4.70;;
14377;SDS011;7272;53.668;9.578;2023-12-14T06:47:26;6.43;;;4.77;;
14377;SDS011;7272;53.668;9.578;2023-12-14T06:50:27;4.80;;;4.30;;
14377;SDS011;7272;53.668;9.578;2023-12-14T06:53:29;7.97;;;4.97;;
14377;SDS011;7272;53.668;9.578;2023-12-14T06:56:31;8.83;;;5.07;;
14377;SDS011;7272;53.668;9.578;2023-12-14T06:59:32;6.77;;;5.00;;
14377;SDS011;7272;53.668;9.578;2023-12-14T07:02:34;6.17;;;5.40;;
14377;SDS011;7272;53.668;9.578;2023-12-14T07:05:36;7.03;;;5.17;;
14377;SDS011;7272;53.668;9.578;2023-12-14T07:08:37;6.47;;;5.00;;
14377;SDS011;7272;53.668;9.578;2023-12-14T07:11:39;5.97;;;4.77;;
14377;SDS011;7272;53.668;9.578;2023-12-14T07:14:41;7.40;;;5.57;;
14377;SDS011;7272;53.668;9.578;2023-12-14T07:17:43;5.80;;;4.33;;
14377;SDS011;7272;53.668;9.578;2023-12-14T07:20:44;6.27;;;4.70;;
14377;SDS011;7272;53.668;9.578;2023-12-14T07:23:45;10.43;;;4.97;;
14377;SDS011;7272;53.668;9.578;2023-12-14T07:26:47;6.07;;;5.07;;
14377;SDS011;7272;53.668;9.578;2023-12-14T07:29:49;8.70;;;5.20;;
14377;SDS011;7272;53.668;9.578;2023-12-14T07:32:51;9.07;;;5.57;;
14377;SDS011;7272;53.668;9.578;2023-12-14T07:35:52;6.47;;;5.40;;
14377;SDS011;7272;53.668;9.578;2023-12-14T07:38:53;8.93;;;5.50;;
14377;SDS011;7272;53.668;9.578;2023-12-14T07:41:55;10.20;;;5.43;;
14377;SDS011;7272;53.668;9.578;2023-12-14T07:44:56;5.87;;;5.10;;
14377;SDS011;7272;53.668;9.578;2023-12-14T07:47:58;6.93;;;5.93;;
14377;SDS011;7272;53.668;9.578;2023-12-14T07:50:59;7.33;;;5.60;;
14377;SDS011;7272;53.668;9.578;2023-12-14T07:54:00;7.53;;;5.37;;
14377;SDS011;7272;53.668;9.578;2023-12-14T07:57:04;7.30;;;5.90;;
14377;SDS011;7272;53.668;9.578;2023-12-14T08:00:06;7.13;;;5.33;;
14377;SDS011;7272;53.668;9.578;2023-12-14T08:03:08;8.20;;;6.07;;
14377;SDS011;7272;53.668;9.578;2023-12-14T08:06:10;7.17;;;6.33;;
14377;SDS011;7272;53.668;9.578;2023-12-14T08:09:11;9.20;;;6.27;;
14377;SDS011;7272;53.668;9.578;2023-12-14T08:12:13;7.03;;;5.37;;
14377;SDS011;7272;53.668;9.578;2023-12-14T08:15:14;8.23;;;5.43;;
14377;SDS011;7272;53.668;9.578;2023-12-14T08:18:16;7.87;;;5.80;;
14377;SDS011;7272;53.668;9.578;2023-12-14T08:21:17;5.97;;;5.27;;
14377;SDS011;7272;53.668;9.578;2023-12-14T08:24:19;6.10;;;5.40;;
14377;SDS011;7272;53.668;9.578;2023-12-14T08:27:20;9.73;;;5.93;;
14377;SDS011;7272;53.668;9.578;2023-12-14T08:30:22;8.37;;;6.33;;
14377;SDS011;7272;53.668;9.578;2023-12-14T08:33:24;8.93;;;5.77;;
14377;SDS011;7272;53.668;9.578;2023-12-14T08:36:25;8.60;;;6.03;;
14377;SDS011;7272;53.668;9.578;2023-12-14T08:39:26;7.17;;;5.77;;
14377;SDS011;7272;53.668;9.578;2023-12-14T08:42:28;8.50;;;5.67;;
14377;SDS011;7272;53.668;9.578;2023-12-14T08:45:29;7.67;;;6.07;;
14377;SDS011;7272;53.668;9.578;2023-12-14T08:48:30;7.13;;;6.00;;
14377;SDS011;7272;53.668;9.578;2023-12-14T08:51:31;9.63;;;6.50;;
14377;SDS011;7272;53.668;9.578;2023-12-14T08:54:32;8.50;;;5.73;;
14377;SDS011;7272;53.668;9.578;2023-12-14T08:57:34;8.03;;;6.03;;
14377;SDS011;7272;53.668;9.578;2023-12-14T09:00:36;9.07;;;6.33;;
14377;SDS011;7272;53.668;9.578;2023-12-14T09:03:37;8.13;;;6.50;;
14377;SDS011;7272;53.668;9.578;2023-12-14T09:06:38;9.67;;;6.17;;
14377;SDS011;7272;53.668;9.578;2023-12-14T09:09:42;9.47;;;7.07;;
14377;SDS011;7272;53.668;9.578;2023-12-14T09:12:44;10.83;;;6.63;;
14377;SDS011;7272;53.668;9.578;2023-12-14T09:15:45;7.47;;;6.10;;
14377;SDS011;7272;53.668;9.578;2023-12-14T09:18:47;9.70;;;6.43;;
14377;SDS011;7272;53.668;9.578;2023-12-14T09:21:48;9.53;;;6.70;;
14377;SDS011;7272;53.668;9.578;2023-12-14T09:24:49;9.43;;;5.97;;
14377;SDS011;7272;53.668;9.578;2023-12-14T09:27:51;10.43;;;6.40;;
14377;SDS011;7272;53.668;9.578;2023-12-14T09:30:52;10.20;;;6.93;;
14377;SDS011;7272;53.668;9.578;2023-12-14T09:33:53;7.43;;;6.13;;
14377;SDS011;7272;53.668;9.578;2023-12-14T09:36:55;7.87;;;6.43;;
14377;SDS011;7272;53.668;9.578;2023-12-14T09:39:56;8.17;;;5.60;;
14377;SDS011;7272;53.668;9.578;2023-12-14T09:42:58;7.17;;;5.90;;
14377;SDS011;7272;53.668;9.578;2023-12-14T09:45:59;8.30;;;5.80;;
14377;SDS011;7272;53.668;9.578;2023-12-14T09:49:02;9.70;;;6.10;;
14377;SDS011;7272;53.668;9.578;2023-12-14T09:52:04;10.00;;;6.03;;
14377;SDS011;7272;53.668;9.578;2023-12-14T09:55:06;6.13;;;5.53;;
14377;SDS011;7272;53.668;9.578;2023-12-14T09:58:09;7.33;;;5.53;;
14377;SDS011;7272;53.668;9.578;2023-12-14T10:01:20;7.83;;;5.50;;
14377;SDS011;7272;53.668;9.578;2023-12-14T10:04:24;6.83;;;5.10;;
14377;SDS011;7272;53.668;9.578;2023-12-14T10:07:25;5.93;;;5.20;;
14377;SDS011;7272;53.668;9.578;2023-12-14T10:10:28;7.37;;;6.57;;
14377;SDS011;7272;53.668;9.578;2023-12-14T10:13:37;7.13;;;5.53;;
14377;SDS011;7272;53.668;9.578;2023-12-14T10:16:38;5.00;;;4.47;;
14377;SDS011;7272;53.668;9.578;2023-12-14T10:19:41;6.20;;;5.40;;
14377;SDS011;7272;53.668;9.578;2023-12-14T10:22:43;4.93;;;4.27;;
14377;SDS011;7272;53.668;9.578;2023-12-14T10:25:45;6.87;;;4.50;;
14377;SDS011;7272;53.668;9.578;2023-12-14T10:28:47;6.47;;;5.03;;
14377;SDS011;7272;53.668;9.578;2023-12-14T10:31:49;6.10;;;4.47;;
14377;SDS011;7272;53.668;9.578;2023-12-14T10:34:51;5.47;;;4.97;;
14377;SDS011;7272;53.668;9.578;2023-12-14T10:37:52;5.13;;;4.37;;
14377;SDS011;7272;53.668;9.578;2023-12-14T10:40:54;4.50;;;3.83;;
14377;SDS011;7272;53.668;9.578;2023-12-14T10:43:57;5.17;;;4.33;;
14377;SDS011;7272;53.668;9.578;2023-12-14T10:47:01;4.43;;;4.00;;
14377;SDS011;7272;53.668;9.578;2023-12-14T10:50:04;6.30;;;3.97;;
14377;SDS011;7272;53.668;9.578;2023-12-14T10:53:07;4.90;;;3.97;;
14377;SDS011;7272;53.668;9.578;2023-12-14T10:56:09;3.97;;;3.57;;
14377;SDS011;7272;53.668;9.578;2023-12-14T10:59:14;4.93;;;4.50;;
14377;SDS011;7272;53.668;9.578;2023-12-14T11:02:16;5.03;;;4.53;;
14377;SDS011;7272;53.668;9.578;2023-12-14T11:05:18;6.33;;;4.73;;
14377;SDS011;7272;53.668;9.578;2023-12-14T11:08:23;4.57;;;4.17;;
14377;SDS011;7272;53.668;9.578;2023-12-14T11:11:27;7.27;;;4.40;;
14377;SDS011;7272;53.668;9.578;2023-12-14T11:14:30;4.67;;;4.00;;
14377;SDS011;7272;53.668;9.578;2023-12-14T11:17:31;4.50;;;3.73;;
14377;SDS011;7272;53.668;9.578;2023-12-14T11:20:46;5.37;;;4.40;;
14377;SDS011;7272;53.668;9.578;2023-12-14T11:23:50;5.60;;;4.93;;
14377;SDS011;7272;53.668;9.578;2023-12-14T11:26:51;7.87;;;4.70;;
14377;SDS011;7272;53.668;9.578;2023-12-14T11:29:53;6.50;;;4.80;;
14377;SDS011;7272;53.668;9.578;2023-12-14T11:32:54;7.63;;;4.50;;
14377;SDS011;7272;53.668;9.578;2023-12-14T11:35:56;6.47;;;4.53;;
14377;SDS011;7272;53.668;9.578;2023-12-14T11:38:57;4.93;;;3.57;;
14377;SDS011;7272;53.668;9.578;2023-12-14T11:41:59;4.93;;;4.43;;
14377;SDS011;7272;53.668;9.578;2023-12-14T11:45:01;5.50;;;4.77;;
14377;SDS011;7272;53.668;9.578;2023-12-14T11:48:04;4.60;;;4.20;;
14377;SDS011;7272;53.668;9.578;2023-12-14T11:51:06;8.27;;;4.87;;
14377;SDS011;7272;53.668;9.578;2023-12-14T11:54:07;8.03;;;5.20;;
14377;SDS011;7272;53.668;9.578;2023-12-14T11:57:08;7.73;;;5.13;;
14377;SDS011;7272;53.668;9.578;2023-12-14T12:00:12;5.77;;;5.03;;
14377;SDS011;7272;53.668;9.578;2023-12-14T12:03:15;5.27;;;4.37;;
14377;SDS011;7272;53.668;9.578;2023-12-14T12:06:20;5.83;;;4.30;;
14377;SDS011;7272;53.668;9.578;2023-12-14T12:09:35;4.97;;;4.37;;
14377;SDS011;7272;53.668;9.578;2023-12-14T12:12:37;4.60;;;3.93;;
14377;SDS011;7272;53.668;9.578;2023-12-14T12:15:39;5.00;;;4.50;;
14377;SDS011;7272;53.668;9.578;2023-12-14T12:18:41;7.00;;;4.63;;
14377;SDS011;7272;53.668;9.578;2023-12-14T12:21:42;5.03;;;4.53;;
14377;SDS011;7272;53.668;9.578;2023-12-14T12:24:43;5.90;;;4.10;;
14377;SDS011;7272;53.668;9.578;2023-12-14T12:27:44;8.23;;;4.10;;
14377;SDS011;7272;53.668;9.578;2023-12-14T12:30:47;4.53;;;4.10;;
14377;SDS011;7272;53.668;9.578;2023-12-14T12:33:49;5.10;;;4.20;;
14377;SDS011;7272;53.668;9.578;2023-12-14T12:36:50;5.17;;;4.20;;
14377;SDS011;7272;53.668;9.578;2023-12-14T12:39:51;5.60;;;4.47;;
14377;SDS011;7272;53.668;9.578;2023-12-14T12:42:52;5.63;;;3.80;;
14377;SDS011;7272;53.668;9.578;2023-12-14T12:45:54;6.67;;;4.13;;
14377;SDS011;7272;53.668;9.578;2023-12-14T12:48:57;5.17;;;3.87;;
14377;SDS011;7272;53.668;9.578;2023-12-14T12:51:58;6.20;;;4.77;;
14377;SDS011;7272;53.668;9.578;2023-12-14T12:54:59;6.60;;;4.33;;
14377;SDS011;7272;53.668;9.578;2023-12-14T12:58:01;4.93;;;4.43;;
14377;SDS011;7272;53.668;9.578;2023-12-14T13:01:06;5.80;;;4.43;;
14377;SDS011;7272;53.668;9.578;2023-12-14T13:04:17;6.27;;;4.87;;
14377;SDS011;7272;53.668;9.578;2023-12-14T13:07:18;6.17;;;4.13;;
14377;SDS011;7272;53.668;9.578;2023-12-14T13:10:20;4.03;;;3.73;;
14377;SDS011;7272;53.668;9.578;2023-12-14T13:13:27;5.30;;;4.50;;
14377;SDS011;7272;53.668;9.578;2023-12-14T13:16:28;7.67;;;4.13;;
14377;SDS011;7272;53.668;9.578;2023-12-14T13:19:30;6.47;;;4.27;;
14377;SDS011;7272;53.668;9.578;2023-12-14T13:22:31;5.37;;;4.00;;
14377;SDS011;7272;53.668;9.578;2023-12-14T13:25:33;6.30;;;4.17;;
14377;SDS011;7272;53.668;9.578;2023-12-14T13:28:35;4.40;;;3.93;;
14377;SDS011;7272;53.668;9.578;2023-12-14T13:31:37;6.00;;;4.47;;
14377;SDS011;7272;53.668;9.578;2023-12-14T13:34:39;5.47;;;4.13;;
14377;SDS011;7272;53.668;9.578;2023-12-14T13:37:40;6.30;;;4.27;;
14377;SDS011;7272;53.668;9.578;2023-12-14T13:40:41;4.57;;;4.13;;
14377;SDS011;7272;53.668;9.578;2023-12-14T13:43:43;4.80;;;3.70;;
14377;SDS011;7272;53.668;9.578;2023-12-14T13:46:47;4.33;;;3.80;;
14377;SDS011;7272;53.668;9.578;2023-12-14T13:49:48;6.03;;;4.17;;
14377;SDS011;7272;53.668;9.578;2023-12-14T13:52:50;5.07;;;4.57;;
14377;SDS011;7272;53.668;9.578;2023-12-14T13:55:51;7.10;;;5.80;;
14377;SDS011;7272;53.668;9.578;2023-12-14T13:58:53;5.23;;;3.03;;
14377;SDS011;7272;53.668;9.578;2023-12-14T14:01:55;3.50;;;3.20;;
14377;SDS011;7272;53.668;9.578;2023-12-14T14:04:56;3.50;;;3.20;;
14377;SDS011;7272;53.668;9.578;2023-12-14T14:07:57;4.17;;;3.27;;
14377;SDS011;7272;53.668;9.578;2023-12-14T14:10:59;4.97;;;3.83;;
14377;SDS011;7272;53.668;9.578;2023-12-14T14:14:01;4.60;;;3.87;;
14377;SDS011;7272;53.668;9.578;2023-12-14T14:17:03;4.27;;;3.50;;
14377;SDS011;7272;53.668;9.578;2023-12-14T14:20:07;4.63;;;4.20;;
14377;SDS011;7272;53.668;9.578;2023-12-14T14:23:10;3.47;;;3.17;;
14377;SDS011;7272;53.668;9.578;2023-12-14T14:26:11;3.40;;;3.03;;
14377;SDS011;7272;53.668;9.578;2023-12-14T14:29:13;3.47;;;3.17;;
14377;SDS011;7272;53.668;9.578;2023-12-14T14:32:15;4.07;;;3.23;;
14377;SDS011;7272;53.668;9.578;2023-12-14T14:35:16;5.27;;;3.93;;
14377;SDS011;7272;53.668;9.578;2023-12-14T14:38:18;7.43;;;3.90;;
14377;SDS011;7272;53.668;9.578;2023-12-14T14:41:20;4.80;;;3.47;;
14377;SDS011;7272;53.668;9.578;2023-12-14T14:44:21;4.60;;;3.03;;
14377;SDS011;7272;53.668;9.578;2023-12-14T14:47:23;4.00;;;3.07;;
14377;SDS011;7272;53.668;9.578;2023-12-14T14:50:24;4.03;;;3.57;;
14377;SDS011;7272;53.668;9.578;2023-12-14T14:53:25;6.17;;;3.10;;
14377;SDS011;7272;53.668;9.578;2023-12-14T14:56:27;5.60;;;3.50;;
14377;SDS011;7272;53.668;9.578;2023-12-14T14:59:28;5.27;;;3.10;;
14377;SDS011;7272;53.668;9.578;2023-12-14T15:02:31;4.73;;;3.03;;
14377;SDS011;7272;53.668;9.578;2023-12-14T15:05:32;3.63;;;2.97;;
14377;SDS011;7272;53.668;9.578;2023-12-14T15:08:33;4.47;;;3.37;;
14377;SDS011;7272;53.668;9.578;2023-12-14T15:11:34;4.17;;;3.40;;
14377;SDS011;7272;53.668;9.578;2023-12-14T15:14:36;7.87;;;4.40;;
14377;SDS011;7272;53.668;9.578;2023-12-14T15:17:37;5.23;;;4.00;;
14377;SDS011;7272;53.668;9.578;2023-12-14T15:20:39;5.17;;;4.27;;
14377;SDS011;7272;53.668;9.578;2023-12-14T15:23:40;5.70;;;4.53;;
14377;SDS011;7272;53.668;9.578;2023-12-14T15:26:44;6.03;;;4.20;;
14377;SDS011;7272;53.668;9.578;2023-12-14T15:29:45;4.03;;;3.63;;
14377;SDS011;7272;53.668;9.578;2023-12-14T15:32:47;4.40;;;4.00;;
14377;SDS011;7272;53.668;9.578;2023-12-14T15:35:48;4.53;;;3.40;;
14377;SDS011;7272;53.668;9.578;2023-12-14T15:38:49;5.77;;;4.10;;
14377;SDS011;7272;53.668;9.578;2023-12-14T15:41:50;4.37;;;3.60;;
14377;SDS011;7272;53.668;9.578;2023-12-14T15:44:52;4.10;;;3.70;;
14377;SDS011;7272;53.668;9.578;2023-12-14T15:47:54;3.30;;;3.00;;
14377;SDS011;7272;53.668;9.578;2023-12-14T15:50:55;4.73;;;3.43;;
14377;SDS011;7272;53.668;9.578;2023-12-14T15:53:56;4.63;;;4.23;;
14377;SDS011;7272;53.668;9.578;2023-12-14T15:56:59;3.80;;;3.50;;
14377;SDS011;7272;53.668;9.578;2023-12-14T16:00:00;4.63;;;3.60;;
14377;SDS011;7272;53.668;9.578;2023-12-14T16:03:08;4.57;;;3.20;;
14377;SDS011;7272;53.668;9.578;2023-12-14T16:06:09;3.80;;;3.10;;
14377;SDS011;7272;53.668;9.578;2023-12-14T16:09:11;4.13;;;3.30;;
14377;SDS011;7272;53.668;9.578;2023-12-14T16:12:13;5.30;;;4.10;;
14377;SDS011;7272;53.668;9.578;2023-12-14T16:15:14;4.83;;;4.33;;
14377;SDS011;7272;53.668;9.578;2023-12-14T16:18:16;4.83;;;4.10;;
14377;SDS011;7272;53.668;9.578;2023-12-14T16:21:17;5.77;;;4.13;;
14377;SDS011;7272;53.668;9.578;2023-12-14T16:24:18;4.90;;;4.40;;
14377;SDS011;7272;53.668;9.578;2023-12-14T16:27:20;5.20;;;4.00;;
14377;SDS011;7272;53.668;9.578;2023-12-14T16:30:22;5.97;;;4.20;;
14377;SDS011;7272;53.668;9.578;2023-12-14T16:33:24;4.60;;;4.20;;
14377;SDS011;7272;53.668;9.578;2023-12-14T16:36:25;5.07;;;4.57;;
14377;SDS011;7272;53.668;9.578;2023-12-14T16:39:26;5.23;;;4.47;;
14377;SDS011;7272;53.668;9.578;2023-12-14T16:42:28;4.37;;;3.97;;
14377;SDS011;7272;53.668;9.578;2023-12-14T16:45:29;4.80;;;4.00;;
14377;SDS011;7272;53.668;9.578;2023-12-14T16:48:31;4.83;;;4.33;;
14377;SDS011;7272;53.668;9.578;2023-12-14T16:51:32;5.60;;;4.83;;
14377;SDS011;7272;53.668;9.578;2023-12-14T16:54:33;4.57;;;3.90;;
14377;SDS011;7272;53.668;9.578;2023-12-14T16:57:34;4.47;;;4.07;;
14377;SDS011;7272;53.668;9.578;2023-12-14T17:00:36;4.77;;;4.03;;
14377;SDS011;7272;53.668;9.578;2023-12-14T17:03:37;3.63;;;3.33;;
14377;SDS011;7272;53.668;9.578;2023-12-14T17:06:39;4.47;;;4.07;;
14377;SDS011;7272;53.668;9.578;2023-12-14T17:09:40;4.67;;;3.57;;
14377;SDS011;7272;53.668;9.578;2023-12-14T17:12:42;4.33;;;3.90;;
14377;SDS011;7272;53.668;9.578;2023-12-14T17:15:43;4.60;;;3.70;;
14377;SDS011;7272;53.668;9.578;2023-12-14T17:18:45;4.10;;;3.27;;
14377;SDS011;7272;53.668;9.578;2023-12-14T17:21:49;3.23;;;2.93;;
14377;SDS011;7272;53.668;9.578;2023-12-14T17:24:50;3.50;;;3.20;;
14377;SDS011;7272;53.668;9.578;2023-12-14T17:27:52;5.07;;;3.70;;
14377;SDS011;7272;53.668;9.578;2023-12-14T17:30:53;2.97;;;2.77;;
14377;SDS011;7272;53.668;9.578;2023-12-14T17:33:54;3.77;;;3.37;;
14377;SDS011;7272;53.668;9.578;2023-12-14T17:36:56;3.43;;;3.13;;
14377;SDS011;7272;53.668;9.578;2023-12-14T17:39:57;3.03;;;2.73;;
14377;SDS011;7272;53.668;9.578;2023-12-14T17:42:58;3.20;;;2.90;;
14377;SDS011;7272;53.668;9.578;2023-12-14T17:45:59;3.57;;;3.23;;
14377;SDS011;7272;53.668;9.578;2023-12-14T17:49:01;3.80;;;3.50;;
14377;SDS011;7272;53.668;9.578;2023-12-14T17:52:03;3.70;;;3.30;;
14377;SDS011;7272;53.668;9.578;2023-12-14T17:55:05;3.27;;;2.97;;
14377;SDS011;7272;53.668;9.578;2023-12-14T17:58:07;3.87;;;3.47;;
14377;SDS011;7272;53.668;9.578;2023-12-14T18:01:08;3.43;;;3.13;;
14377;SDS011;7272;53.668;9.578;2023-12-14T18:04:10;4.93;;;3.80;;
14377;SDS011;7272;53.668;9.578;2023-12-14T18:07:11;4.80;;;4.20;;
14377;SDS011;7272;53.668;9.578;2023-12-14T18:10:13;5.03;;;4.43;;
14377;SDS011;7272;53.668;9.578;2023-12-14T18:13:14;5.07;;;4.57;;
14377;SDS011;7272;53.668;9.578;2023-12-14T18:16:17;4.77;;;4.00;;
14377;SDS011;7272;53.668;9.578;2023-12-14T18:19:19;5.10;;;4.60;;
14377;SDS011;7272;53.668;9.578;2023-12-14T18:22:20;4.67;;;3.43;;
14377;SDS011;7272;53.668;9.578;2023-12-14T18:25:22;3.80;;;3.50;;
14377;SDS011;7272;53.668;9.578;2023-12-14T18:28:25;6.97;;;3.80;;
14377;SDS011;7272;53.668;9.578;2023-12-14T18:31:27;4.97;;;4.03;;